Time;durP1;ratioP1;P1;durP2;ratioP2;P2;SDS_P1;SDS_P2;PMS_P1;PMS_P2;Temp;Humidity;BMP_temperature;BMP_pressure;BME280_temperature;BME280_humidity;BME280_pressure;Samples;Min_cycle;Max_cycle;Signal;HPM_P1;HPM_P2
2023/06/19 00:01:29;;;;;;;9.18;7.93;;;21.80;99.10;;;;;;4984231;28;20129;-55
2023/06/19 00:03:54;;;;;;;9.45;7.78;;;21.80;99.00;;;;;;4991032;28;20042;-56
2023/06/19 00:06:20;;;;;;;8.68;7.78;;;21.80;98.90;;;;;;4989527;28;20061;-52
2023/06/19 00:08:46;;;;;;;9.95;7.93;;;21.80;98.80;;;;;;4982739;28;20038;-58
2023/06/19 00:11:11;;;;;;;8.27;7.45;;;21.70;98.70;;;;;;4989391;28;20046;-59
2023/06/19 00:13:37;;;;;;;10.60;7.72;;;21.70;98.70;;;;;;4982749;28;20597;-48
2023/06/19 00:16:02;;;;;;;12.90;8.00;;;21.70;98.60;;;;;;4983787;28;20046;-58
2023/06/19 00:18:28;;;;;;;9.15;8.25;;;21.70;98.60;;;;;;4988351;28;20050;-56
2023/06/19 00:20:55;;;;;;;10.25;7.95;;;21.60;98.80;;;;;;4982038;28;20043;-56
2023/06/19 00:23:22;;;;;;;9.18;8.27;;;21.60;98.90;;;;;;4981944;28;20046;-48
2023/06/19 00:25:47;;;;;;;9.32;8.27;;;21.60;99.00;;;;;;4984395;28;20046;-54
2023/06/19 00:28:14;;;;;;;9.07;7.80;;;21.60;99.00;;;;;;4988224;28;20042;-49
2023/06/19 00:30:41;;;;;;;11.98;7.20;;;21.50;98.90;;;;;;4987685;28;20078;-54
2023/06/19 00:33:07;;;;;;;9.40;7.60;;;21.50;98.70;;;;;;4994776;28;20042;-59
2023/06/19 00:35:33;;;;;;;11.00;7.78;;;21.50;98.60;;;;;;5002044;28;20043;-55
2023/06/19 00:38:01;;;;;;;8.27;7.38;;;21.60;98.50;;;;;;5001698;28;20117;-56
2023/06/19 00:40:32;;;;;;;7.80;6.97;;;21.50;98.40;;;;;;4986051;28;20038;-54
2023/06/19 00:42:58;;;;;;;9.93;7.70;;;21.60;98.40;;;;;;4987225;28;20089;-52
2023/06/19 00:45:25;;;;;;;7.85;7.05;;;21.60;98.30;;;;;;4987449;28;20079;-52
2023/06/19 00:47:52;;;;;;;8.70;7.07;;;21.60;98.20;;;;;;4987625;28;20042;-59
2023/06/19 00:50:18;;;;;;;10.63;7.18;;;21.60;98.10;;;;;;4987360;28;20053;-59
2023/06/19 00:52:43;;;;;;;8.20;7.20;;;21.50;98.00;;;;;;4986869;28;20050;-54
2023/06/19 00:55:10;;;;;;;8.35;7.20;;;21.60;97.80;;;;;;4985745;28;20042;-58
2023/06/19 00:57:36;;;;;;;8.55;7.28;;;21.60;97.80;;;;;;4986323;28;20639;-51
2023/06/19 01:00:06;;;;;;;8.75;7.85;;;21.70;97.70;;;;;;4987242;28;20117;-57
2023/06/19 01:02:32;;;;;;;7.78;7.05;;;21.60;97.60;;;;;;4985923;28;20116;-54
2023/06/19 01:04:58;;;;;;;8.48;7.22;;;21.50;97.50;;;;;;4986938;28;20577;-54
2023/06/19 01:07:49;;;;;;;8.30;7.50;;;21.60;97.50;;;;;;4987003;28;20414;-56
2023/06/19 01:10:19;;;;;;;9.13;7.30;;;21.50;97.30;;;;;;4982303;28;20425;-54
2023/06/19 01:12:52;;;;;;;8.55;7.70;;;21.50;97.30;;;;;;4988023;28;20049;-58
2023/06/19 01:15:19;;;;;;;9.15;7.40;;;21.50;97.30;;;;;;4986205;28;20096;-54
2023/06/19 01:17:47;;;;;;;9.18;7.90;;;21.60;97.30;;;;;;4999297;28;20050;-55
2023/06/19 01:20:13;;;;;;;8.13;7.03;;;21.60;97.20;;;;;;4989171;28;20046;-53
2023/06/19 01:22:39;;;;;;;8.43;7.40;;;21.60;97.10;;;;;;4997424;28;20061;-58
2023/06/19 01:25:05;;;;;;;10.10;7.05;;;21.60;97.00;;;;;;4995836;28;20597;-52
2023/06/19 01:27:32;;;;;;;9.85;7.07;;;21.60;96.90;;;;;;4985500;28;20042;-58
2023/06/19 01:29:59;;;;;;;7.93;6.60;;;21.50;96.80;;;;;;4985336;28;20038;-56
2023/06/19 01:32:46;;;;;;;8.05;7.25;;;21.60;96.60;;;;;;4984574;28;20581;-56
2023/06/19 01:35:13;;;;;;;10.15;7.43;;;21.60;96.40;;;;;;4985151;28;20125;-55
2023/06/19 01:37:41;;;;;;;7.93;7.13;;;21.60;96.20;;;;;;4985518;28;20050;-58
2023/06/19 01:40:09;;;;;;;8.75;7.47;;;21.60;96.10;;;;;;4985307;28;20038;-52
2023/06/19 01:42:37;;;;;;;8.77;7.43;;;21.60;95.90;;;;;;4985981;28;20476;-58
2023/06/19 01:45:04;;;;;;;9.15;7.72;;;21.60;95.70;;;;;;4985539;28;20042;-51
2023/06/19 01:47:30;;;;;;;7.72;6.90;;;21.60;95.40;;;;;;4985733;28;20161;-57
2023/06/19 01:49:55;;;;;;;8.65;7.40;;;21.60;95.50;;;;;;4984299;28;20129;-53
2023/06/19 01:52:21;;;;;;;8.35;7.43;;;21.60;95.50;;;;;;4986020;28;20061;-55
2023/06/19 01:54:46;;;;;;;10.18;7.20;;;21.50;95.50;;;;;;4984717;28;20072;-54
2023/06/19 01:57:13;;;;;;;9.07;7.45;;;21.50;95.40;;;;;;4984437;28;20103;-48
2023/06/19 01:59:38;;;;;;;12.23;7.72;;;21.50;95.30;;;;;;4986560;28;20046;-58
2023/06/19 02:02:06;;;;;;;10.13;7.32;;;21.50;95.30;;;;;;4984705;28;20643;-51
2023/06/19 02:04:32;;;;;;;7.68;6.65;;;21.50;95.10;;;;;;4985937;28;20041;-52
2023/06/19 02:06:58;;;;;;;9.55;7.47;;;21.50;95.10;;;;;;4986726;28;20141;-51
2023/06/19 02:09:23;;;;;;;9.48;6.90;;;21.60;94.90;;;;;;4984392;28;20046;-52
2023/06/19 02:11:49;;;;;;;7.63;6.88;;;21.50;94.70;;;;;;4985705;28;20045;-58
2023/06/19 02:14:14;;;;;;;8.63;7.60;;;21.60;94.70;;;;;;4985743;28;20065;-56
2023/06/19 02:16:43;;;;;;;8.90;7.30;;;21.60;94.50;;;;;;4985861;28;20089;-56
2023/06/19 02:19:10;;;;;;;8.10;7.30;;;21.60;94.40;;;;;;4984785;28;20145;-52
2023/06/19 02:21:36;;;;;;;8.63;7.18;;;21.60;94.40;;;;;;4985028;28;20038;-58
2023/06/19 02:24:01;;;;;;;11.23;7.10;;;21.60;94.30;;;;;;4967662;28;20046;-57
2023/06/19 02:26:29;;;;;;;11.15;7.47;;;21.60;94.00;;;;;;4985457;28;20047;-58
2023/06/19 02:28:57;;;;;;;8.00;6.88;;;21.60;94.00;;;;;;4985372;28;20503;-58
2023/06/19 02:31:23;;;;;;;8.38;7.25;;;21.60;93.90;;;;;;5004505;28;20045;-57
2023/06/19 02:33:49;;;;;;;8.07;6.90;;;21.60;93.90;;;;;;5005134;28;20042;-58
2023/06/19 02:36:19;;;;;;;8.60;7.03;;;21.60;93.90;;;;;;4993084;28;20031;-54
2023/06/19 02:38:48;;;;;;;7.55;6.75;;;21.60;93.80;;;;;;4984615;28;20050;-59
2023/06/19 02:41:14;;;;;;;10.43;7.50;;;21.60;94.10;;;;;;4985968;28;20042;-58
2023/06/19 02:43:43;;;;;;;10.18;7.07;;;21.60;93.70;;;;;;4983908;28;20174;-58
2023/06/19 02:46:09;;;;;;;9.25;7.15;;;21.60;93.70;;;;;;4984865;28;20050;-55
2023/06/19 02:48:34;;;;;;;8.52;7.72;;;21.60;93.70;;;;;;4985083;28;20046;-59
2023/06/19 02:51:00;;;;;;;8.80;7.55;;;21.60;93.70;;;;;;4984286;28;20046;-54
2023/06/19 02:53:26;;;;;;;9.57;7.10;;;21.60;93.20;;;;;;4983660;28;20049;-57
2023/06/19 02:55:51;;;;;;;10.75;7.05;;;21.60;93.20;;;;;;4985821;28;20042;-56
2023/06/19 02:58:17;;;;;;;12.27;7.65;;;21.50;93.20;;;;;;4984868;28;20074;-57
2023/06/19 03:00:43;;;;;;;10.70;7.32;;;21.60;93.00;;;;;;4983608;28;20073;-58
2023/06/19 03:03:08;;;;;;;10.38;7.13;;;21.50;93.40;;;;;;4984385;28;20437;-54
2023/06/19 03:05:34;;;;;;;9.02;7.28;;;21.50;92.80;;;;;;4987581;28;20046;-58
2023/06/19 03:08:00;;;;;;;8.90;7.63;;;21.60;92.50;;;;;;5004184;28;20054;-48
2023/06/19 03:10:25;;;;;;;9.82;7.55;;;21.50;92.50;;;;;;5003723;28;20046;-53
2023/06/19 03:12:51;;;;;;;9.25;7.38;;;21.60;92.50;;;;;;4989218;28;20460;-57
2023/06/19 03:15:16;;;;;;;8.57;7.25;;;21.60;92.60;;;;;;4984912;28;20058;-54
2023/06/19 03:17:42;;;;;;;8.80;7.65;;;21.50;92.60;;;;;;4983208;28;20086;-58
2023/06/19 03:20:11;;;;;;;8.18;7.38;;;21.50;92.50;;;;;;4984970;28;20512;-59
2023/06/19 03:22:40;;;;;;;8.40;7.45;;;21.50;92.60;;;;;;4984608;28;20042;-57
2023/06/19 03:25:07;;;;;;;8.40;7.53;;;21.50;92.80;;;;;;4984098;28;20042;-56
2023/06/19 03:27:33;;;;;;;7.95;7.18;;;21.50;92.60;;;;;;4984120;28;20084;-58
2023/06/19 03:29:58;;;;;;;8.23;7.40;;;21.40;92.80;;;;;;4985128;28;20034;-57
2023/06/19 03:32:24;;;;;;;10.70;8.18;;;21.50;92.70;;;;;;4983949;28;20042;-52
2023/06/19 03:34:50;;;;;;;8.63;7.72;;;21.50;92.60;;;;;;4984199;28;20116;-56
2023/06/19 03:37:15;;;;;;;11.63;7.63;;;21.50;92.60;;;;;;4984542;28;20055;-53
2023/06/19 03:39:42;;;;;;;7.90;7.10;;;21.60;92.50;;;;;;4983878;28;20208;-55
2023/06/19 03:42:08;;;;;;;9.73;7.30;;;21.60;92.50;;;;;;4983946;28;20042;-57
2023/06/19 03:44:33;;;;;;;9.50;7.53;;;21.60;92.50;;;;;;4984512;28;20118;-51
2023/06/19 03:46:59;;;;;;;9.85;7.45;;;21.60;92.50;;;;;;4984993;28;20034;-58
2023/06/19 03:49:25;;;;;;;9.30;7.22;;;21.60;92.60;;;;;;4984808;28;20409;-55
2023/06/19 03:51:51;;;;;;;8.65;6.95;;;21.60;92.80;;;;;;4984028;28;20268;-56
2023/06/19 03:54:16;;;;;;;9.20;7.43;;;21.60;92.90;;;;;;4988161;28;20675;-55
2023/06/19 03:56:42;;;;;;;8.75;7.63;;;21.70;93.10;;;;;;4984229;28;20042;-53
2023/06/19 03:59:08;;;;;;;9.07;7.50;;;21.70;93.20;;;;;;4984280;28;20035;-56
2023/06/19 04:01:33;;;;;;;11.90;7.53;;;21.70;93.30;;;;;;4987263;28;20054;-58
2023/06/19 04:03:59;;;;;;;9.82;7.00;;;21.70;93.40;;;;;;4987849;28;20402;-55
2023/06/19 04:06:24;;;;;;;8.25;7.07;;;21.70;93.50;;;;;;4988413;28;20054;-56
2023/06/19 04:08:50;;;;;;;10.90;7.13;;;21.70;93.60;;;;;;4987394;28;20055;-54
2023/06/19 04:11:15;;;;;;;8.82;7.00;;;21.80;93.70;;;;;;4988717;28;20333;-57
2023/06/19 04:13:41;;;;;;;10.15;7.90;;;21.80;93.80;;;;;;4987987;28;20050;-58
2023/06/19 04:16:07;;;;;;;8.05;6.95;;;21.80;93.80;;;;;;4986093;28;20046;-54
2023/06/19 04:18:32;;;;;;;7.85;6.97;;;21.80;94.00;;;;;;4988064;28;20119;-55
2023/06/19 04:20:58;;;;;;;12.57;7.63;;;21.80;94.00;;;;;;4987555;28;20429;-50
2023/06/19 04:23:23;;;;;;;8.73;7.18;;;21.80;94.10;;;;;;4987168;28;20030;-48
2023/06/19 04:25:49;;;;;;;10.15;6.65;;;21.80;94.20;;;;;;4987213;28;20046;-57
2023/06/19 04:28:14;;;;;;;8.43;6.90;;;21.90;94.40;;;;;;4987238;28;20054;-56
2023/06/19 04:30:40;;;;;;;7.55;6.57;;;22.00;94.40;;;;;;5001381;28;20042;-54
2023/06/19 04:33:07;;;;;;;8.15;6.95;;;22.00;94.50;;;;;;4987072;28;20472;-58
2023/06/19 04:35:34;;;;;;;12.23;7.38;;;21.90;94.60;;;;;;4987653;28;20112;-55
2023/06/19 04:38:01;;;;;;;7.20;6.50;;;21.90;94.60;;;;;;4986540;28;20129;-58
2023/06/19 04:40:27;;;;;;;7.60;6.55;;;21.90;94.90;;;;;;4986860;28;20074;-49
2023/06/19 04:42:53;;;;;;;7.82;6.60;;;21.80;95.00;;;;;;4987382;28;20108;-58
2023/06/19 04:45:19;;;;;;;8.40;6.05;;;21.90;95.10;;;;;;4987180;28;20046;-55
2023/06/19 04:47:45;;;;;;;7.90;6.20;;;21.90;95.30;;;;;;4987616;28;20577;-58
2023/06/19 04:50:10;;;;;;;7.38;6.13;;;21.90;95.30;;;;;;4986756;28;20047;-54
2023/06/19 04:52:37;;;;;;;8.07;6.00;;;21.80;95.50;;;;;;4986652;28;20453;-51
2023/06/19 04:55:09;;;;;;;10.50;6.35;;;21.90;95.80;;;;;;4986525;28;20071;-58
2023/06/19 04:57:36;;;;;;;7.75;6.20;;;21.90;95.70;;;;;;5005452;28;20050;-53
2023/06/19 05:00:10;;;;;;;6.88;5.85;;;22.00;95.60;;;;;;4998918;28;20428;-57
2023/06/19 05:02:36;;;;;;;11.32;6.65;;;22.10;95.60;;;;;;4987395;28;20101;-59
2023/06/19 05:05:03;;;;;;;10.60;6.30;;;22.30;95.50;;;;;;4985303;28;20050;-51
2023/06/19 05:07:32;;;;;;;8.15;6.57;;;22.30;95.50;;;;;;4985674;28;20054;-57
2023/06/19 05:10:00;;;;;;;10.60;7.10;;;22.40;95.40;;;;;;4986724;28;20057;-55
2023/06/19 05:12:26;;;;;;;8.10;6.97;;;22.50;95.10;;;;;;4987093;28;20351;-57
2023/06/19 05:14:52;;;;;;;10.38;6.97;;;22.50;95.10;;;;;;4986905;28;20108;-53
2023/06/19 05:17:17;;;;;;;9.02;7.03;;;22.50;95.20;;;;;;4986758;28;20064;-49
2023/06/19 05:19:43;;;;;;;7.00;6.30;;;22.50;95.40;;;;;;4995636;28;20526;-55
2023/06/19 05:22:08;;;;;;;7.93;6.25;;;22.40;95.30;;;;;;5024789;28;20045;-53
2023/06/19 05:24:34;;;;;;;6.47;5.78;;;22.50;95.50;;;;;;4999019;28;20066;-55
2023/06/19 05:26:59;;;;;;;8.48;5.55;;;22.60;95.80;;;;;;4986815;28;20057;-54
2023/06/19 05:29:25;;;;;;;7.72;5.13;;;22.60;96.00;;;;;;4990133;28;20034;-47
2023/06/19 05:31:51;;;;;;;6.35;4.55;;;22.60;96.10;;;;;;4995889;28;20046;-59
2023/06/19 05:34:17;;;;;;;7.63;3.85;;;22.70;96.20;;;;;;4986486;28;20042;-55
2023/06/19 05:36:45;;;;;;;6.20;3.97;;;22.80;96.20;;;;;;4992230;28;20038;-58
2023/06/19 05:39:10;;;;;;;9.02;3.90;;;22.70;96.40;;;;;;4992488;28;20097;-54
2023/06/19 05:41:36;;;;;;;6.53;3.38;;;22.70;96.80;;;;;;4986158;28;20042;-58
2023/06/19 05:44:02;;;;;;;6.10;3.40;;;22.70;96.90;;;;;;4991342;28;20053;-58
2023/06/19 05:46:27;;;;;;;5.93;3.72;;;22.70;96.90;;;;;;4994581;28;20034;-53
2023/06/19 05:48:54;;;;;;;7.45;3.72;;;22.70;96.90;;;;;;4986040;28;20050;-51
2023/06/19 05:51:20;;;;;;;5.63;3.40;;;22.80;97.00;;;;;;4986153;28;20457;-51
2023/06/19 05:53:46;;;;;;;7.35;3.58;;;22.90;97.00;;;;;;4985586;28;20118;-56
2023/06/19 05:56:12;;;;;;;7.72;3.50;;;23.10;96.80;;;;;;4985676;28;20049;-52
2023/06/19 05:58:39;;;;;;;5.78;3.80;;;23.30;96.50;;;;;;4986513;28;20133;-54
2023/06/19 06:01:04;;;;;;;6.72;4.15;;;23.40;96.40;;;;;;4986223;28;20068;-56
2023/06/19 06:03:30;;;;;;;5.30;3.65;;;23.30;96.70;;;;;;4989462;28;20034;-58
2023/06/19 06:06:02;;;;;;;5.00;3.90;;;23.00;97.10;;;;;;4985254;28;20129;-59
2023/06/19 06:08:29;;;;;;;6.95;3.80;;;22.70;97.60;;;;;;4984315;28;20065;-51
2023/06/19 06:10:55;;;;;;;5.50;3.97;;;22.40;98.20;;;;;;4985670;28;20069;-57
2023/06/19 06:13:20;;;;;;;6.80;4.13;;;22.30;98.60;;;;;;5000848;28;20046;-53
2023/06/19 06:15:46;;;;;;;5.78;3.83;;;22.50;98.80;;;;;;4985241;28;20042;-58
2023/06/19 06:18:11;;;;;;;6.43;3.75;;;22.90;98.40;;;;;;4985520;28;20046;-59
2023/06/19 06:20:37;;;;;;;7.07;3.60;;;23.30;98.00;;;;;;4985141;28;20609;-52
2023/06/19 06:23:03;;;;;;;6.65;4.32;;;23.40;97.60;;;;;;4985164;28;20043;-56
2023/06/19 06:25:28;;;;;;;6.32;4.28;;;23.10;98.00;;;;;;4985534;28;20129;-53
2023/06/19 06:27:54;;;;;;;6.55;4.40;;;22.80;98.80;;;;;;4984693;28;20173;-59
2023/06/19 06:30:20;;;;;;;4.60;3.60;;;22.60;99.20;;;;;;4984604;28;20038;-59
2023/06/19 06:32:45;;;;;;;9.20;4.45;;;22.60;99.30;;;;;;4988663;28;20041;-53
2023/06/19 06:35:11;;;;;;;4.70;4.20;;;22.60;99.60;;;;;;4998184;28;20042;-59
2023/06/19 06:37:36;;;;;;;6.90;4.13;;;22.40;99.90;;;;;;4991537;28;20050;-56
2023/06/19 06:40:05;;;;;;;5.82;4.32;;;22.20;99.90;;;;;;4995166;28;20034;-54
2023/06/19 06:42:30;;;;;;;5.65;4.40;;;22.10;99.90;;;;;;4996472;28;20052;-58
2023/06/19 06:44:56;;;;;;;6.68;5.50;;;22.10;99.90;;;;;;4993362;28;20413;-53
2023/06/19 06:47:21;;;;;;;5.75;4.82;;;22.20;99.90;;;;;;4994469;28;20119;-59
2023/06/19 06:49:47;;;;;;;6.93;4.43;;;22.30;99.90;;;;;;4997573;28;20052;-49
2023/06/19 06:52:13;;;;;;;4.75;4.25;;;22.60;99.90;;;;;;5001690;28;20048;-55
2023/06/19 06:54:38;;;;;;;8.90;4.30;;;22.80;99.90;;;;;;5000960;28;20081;-57
2023/06/19 06:57:05;;;;;;;6.07;4.68;;;22.80;99.90;;;;;;5001924;28;20042;-56
2023/06/19 06:59:30;;;;;;;4.60;4.10;;;22.70;99.90;;;;;;5001924;28;20233;-58
2023/06/19 07:01:56;;;;;;;4.72;4.10;;;22.60;99.90;;;;;;5000868;28;20042;-58
2023/06/19 07:04:22;;;;;;;4.40;3.53;;;22.40;99.90;;;;;;5001312;28;20042;-55
2023/06/19 07:06:48;;;;;;;6.25;4.03;;;22.30;99.90;;;;;;5001542;28;20077;-58
2023/06/19 07:09:15;;;;;;;6.55;3.65;;;22.10;99.90;;;;;;5000642;28;20041;-49
2023/06/19 07:11:40;;;;;;;4.13;3.72;;;22.30;99.90;;;;;;5001185;28;20064;-58
2023/06/19 07:14:06;;;;;;;4.18;3.78;;;22.30;99.90;;;;;;5001522;28;20493;-51
2023/06/19 07:16:31;;;;;;;5.15;3.58;;;22.20;99.90;;;;;;4993631;28;20049;-54
2023/06/19 07:18:57;;;;;;;4.30;3.42;;;22.20;99.90;;;;;;4993805;28;20605;-58
2023/06/19 07:21:23;;;;;;;4.43;3.70;;;22.10;99.90;;;;;;4998646;28;20038;-54
2023/06/19 07:23:49;;;;;;;6.28;3.50;;;22.10;99.90;;;;;;5000363;28;20045;-56
2023/06/19 07:26:15;;;;;;;7.07;4.20;;;22.10;99.90;;;;;;5001280;28;20121;-55
2023/06/19 07:28:42;;;;;;;5.95;4.70;;;22.20;99.90;;;;;;5000956;28;20497;-54
2023/06/19 07:31:08;;;;;;;5.60;4.70;;;22.10;99.90;;;;;;5001535;28;20321;-58
2023/06/19 07:33:34;;;;;;;5.22;4.63;;;22.00;99.90;;;;;;4991171;28;20050;-54
2023/06/19 07:36:02;;;;;;;8.82;4.93;;;21.90;99.90;;;;;;4994809;28;20045;-59
2023/06/19 07:38:28;;;;;;;6.40;4.97;;;21.80;99.90;;;;;;4994321;28;20042;-56
2023/06/19 07:40:53;;;;;;;9.43;6.03;;;21.70;99.90;;;;;;4998291;28;20042;-56
2023/06/19 07:43:19;;;;;;;6.57;5.97;;;21.60;99.90;;;;;;4984937;28;20433;-57
2023/06/19 07:45:44;;;;;;;7.13;6.43;;;21.60;99.90;;;;;;4985649;28;20050;-55
2023/06/19 07:48:10;;;;;;;8.50;7.03;;;21.50;99.90;;;;;;4985113;28;20133;-58
2023/06/19 07:50:35;;;;;;;9.05;8.15;;;21.50;99.90;;;;;;4985977;28;20046;-58
2023/06/19 07:53:01;;;;;;;11.68;10.20;;;21.50;99.90;;;;;;4983696;28;20454;-54
2023/06/19 07:55:28;;;;;;;13.88;10.82;;;21.40;99.90;;;;;;4985250;28;20038;-58
2023/06/19 07:57:57;;;;;;;15.18;11.55;;;21.30;99.90;;;;;;4984816;28;20046;-54
2023/06/19 08:00:24;;;;;;;11.65;10.45;;;21.30;99.90;;;;;;4993645;28;20033;-50
2023/06/19 08:02:50;;;;;;;13.65;10.98;;;21.30;99.90;;;;;;4994369;28;20041;-52
2023/06/19 08:05:15;;;;;;;13.85;11.60;;;21.20;99.90;;;;;;5004085;28;20406;-59
2023/06/19 08:07:41;;;;;;;12.45;11.05;;;21.20;99.90;;;;;;5003780;28;20054;-57
2023/06/19 08:10:07;;;;;;;12.85;11.02;;;21.10;99.90;;;;;;5002987;28;20320;-52
2023/06/19 08:12:33;;;;;;;11.88;10.65;;;21.20;99.90;;;;;;5004474;28;20045;-59
2023/06/19 08:14:58;;;;;;;15.75;11.32;;;21.30;99.90;;;;;;5004972;28;20473;-56
2023/06/19 08:17:24;;;;;;;11.57;9.95;;;21.30;99.90;;;;;;5004096;28;20042;-58
2023/06/19 08:19:50;;;;;;;9.93;8.90;;;21.40;99.90;;;;;;5004883;28;20038;-48
2023/06/19 08:22:15;;;;;;;12.27;9.45;;;21.40;99.90;;;;;;5002930;28;20045;-52
2023/06/19 08:24:41;;;;;;;9.95;8.85;;;21.40;99.90;;;;;;5003973;28;20133;-53
2023/06/19 08:27:07;;;;;;;11.73;8.70;;;21.20;99.90;;;;;;4993243;28;20050;-54
2023/06/19 08:29:33;;;;;;;9.45;8.45;;;21.10;99.90;;;;;;4993756;28;20321;-54
2023/06/19 08:31:59;;;;;;;9.45;7.85;;;21.10;99.90;;;;;;4994722;28;20536;-59
2023/06/19 08:34:25;;;;;;;10.75;7.32;;;21.10;99.90;;;;;;4993850;28;20050;-56
2023/06/19 08:36:51;;;;;;;12.30;7.57;;;21.10;99.90;;;;;;5000672;28;20045;-59
2023/06/19 08:39:16;;;;;;;10.93;6.35;;;21.10;99.90;;;;;;4986816;28;20049;-49
2023/06/19 08:41:42;;;;;;;8.20;6.18;;;21.10;99.90;;;;;;4987025;28;20042;-50
2023/06/19 08:44:08;;;;;;;7.97;5.65;;;21.10;99.90;;;;;;4985637;28;20133;-58
2023/06/19 08:46:36;;;;;;;6.15;5.55;;;21.10;99.90;;;;;;4986445;28;20043;-51
2023/06/19 08:49:03;;;;;;;8.15;5.38;;;21.10;99.90;;;;;;4987787;28;20244;-57
2023/06/19 08:51:30;;;;;;;6.97;5.30;;;21.00;99.90;;;;;;4997257;28;20082;-56
2023/06/19 08:54:00;;;;;;;7.57;5.32;;;21.00;99.90;;;;;;4985624;28;20042;-55
2023/06/19 08:56:25;;;;;;;7.55;5.18;;;21.00;99.90;;;;;;4994748;28;20092;-54
2023/06/19 08:58:51;;;;;;;7.07;4.35;;;21.00;99.90;;;;;;4988524;28;20082;-58
2023/06/19 09:01:18;;;;;;;6.78;4.65;;;21.00;99.90;;;;;;4994593;28;20057;-55
2023/06/19 09:03:46;;;;;;;6.13;4.40;;;20.90;99.90;;;;;;4986219;28;20085;-55
2023/06/19 09:06:16;;;;;;;5.60;4.25;;;21.00;99.90;;;;;;4985803;28;20062;-54
2023/06/19 09:08:41;;;;;;;6.20;4.45;;;20.90;99.90;;;;;;4986559;28;20050;-58
2023/06/19 09:11:07;;;;;;;5.55;4.35;;;20.90;99.90;;;;;;4987174;28;20038;-51
2023/06/19 09:13:33;;;;;;;4.40;4.00;;;21.00;99.90;;;;;;4986349;28;20053;-56
2023/06/19 09:16:01;;;;;;;6.88;4.57;;;21.00;99.90;;;;;;4986261;28;20130;-59
2023/06/19 09:18:28;;;;;;;6.18;4.38;;;21.00;99.90;;;;;;4985067;28;20046;-53
2023/06/19 09:20:54;;;;;;;5.32;4.28;;;21.00;99.90;;;;;;4986339;28;20042;-53
2023/06/19 09:23:20;;;;;;;6.15;4.13;;;21.00;99.90;;;;;;4985189;28;20046;-52
2023/06/19 09:25:50;;;;;;;5.75;4.53;;;21.00;99.90;;;;;;4986608;28;20049;-53
2023/06/19 09:28:27;;;;;;;6.00;4.55;;;21.10;99.90;;;;;;4993150;28;20038;-51
2023/06/19 09:30:59;;;;;;;6.60;3.88;;;21.10;99.90;;;;;;4997735;28;20085;-52
2023/06/19 09:33:27;;;;;;;7.88;4.78;;;21.10;99.90;;;;;;4993534;28;20038;-51
2023/06/19 09:35:55;;;;;;;4.88;4.38;;;21.00;99.90;;;;;;4997681;28;20057;-57
2023/06/19 09:38:24;;;;;;;5.63;4.40;;;21.00;99.90;;;;;;4987725;28;20167;-49
2023/06/19 09:40:51;;;;;;;6.05;4.07;;;21.00;99.90;;;;;;4986288;28;20050;-58
2023/06/19 09:43:25;;;;;;;6.20;4.95;;;20.90;99.90;;;;;;5002994;28;20072;-55
2023/06/19 09:45:53;;;;;;;6.57;5.10;;;20.90;99.90;;;;;;5004547;28;20121;-54
2023/06/19 09:48:26;;;;;;;6.38;4.93;;;21.00;99.90;;;;;;5003731;28;20145;-54
2023/06/19 09:50:54;;;;;;;5.45;4.18;;;20.90;99.90;;;;;;4985405;28;20042;-56
2023/06/19 09:53:20;;;;;;;10.20;5.10;;;20.80;99.90;;;;;;4985014;28;20093;-53
2023/06/19 09:55:50;;;;;;;7.65;4.65;;;20.90;99.90;;;;;;4986197;28;20073;-59
2023/06/19 09:58:17;;;;;;;6.65;5.18;;;20.90;99.90;;;;;;4986233;28;20046;-50
2023/06/19 10:00:43;;;;;;;7.53;4.97;;;21.00;99.90;;;;;;4988427;28;20046;-59
2023/06/19 10:03:13;;;;;;;7.88;5.25;;;20.90;99.90;;;;;;4995595;28;20065;-57
2023/06/19 10:05:40;;;;;;;6.85;5.40;;;21.00;99.90;;;;;;4987441;28;20079;-51
2023/06/19 10:08:06;;;;;;;6.88;4.97;;;21.10;99.90;;;;;;4984784;28;20042;-57
2023/06/19 10:10:34;;;;;;;6.82;5.25;;;21.30;99.90;;;;;;4985435;28;20048;-54
2023/06/19 10:13:11;;;;;;;6.30;5.32;;;21.50;99.90;;;;;;4985667;28;20433;-53
2023/06/19 10:15:42;;;;;;;6.38;4.80;;;21.70;99.90;;;;;;4984777;28;20054;-55
2023/06/19 10:18:12;;;;;;;7.53;5.20;;;21.80;99.90;;;;;;4985778;28;20050;-54
2023/06/19 10:20:40;;;;;;;7.85;4.57;;;21.90;99.90;;;;;;4984408;28;20053;-56
2023/06/19 10:23:17;;;;;;;6.80;4.90;;;21.90;99.90;;;;;;4984713;28;20046;-53
2023/06/19 10:25:44;;;;;;;13.50;5.82;;;21.90;99.90;;;;;;4990727;28;20057;-51
2023/06/19 10:28:27;;;;;;;8.48;6.70;;;21.80;99.90;;;;;;4993643;28;20043;-60
2023/06/19 10:30:59;;;;;;;8.63;6.95;;;21.80;99.90;;;;;;4996152;28;20034;-52
2023/06/19 10:33:26;;;;;;;9.13;6.60;;;21.90;99.90;;;;;;4984982;28;20112;-57
2023/06/19 10:35:53;;;;;;;8.63;7.13;;;22.00;99.90;;;;;;4985479;28;20402;-58
2023/06/19 10:38:18;;;;;;;10.07;7.10;;;22.10;99.90;;;;;;4988314;28;20046;-57
2023/06/19 10:40:46;;;;;;;9.43;7.97;;;22.20;99.90;;;;;;4992553;28;20480;-53
2023/06/19 10:43:12;;;;;;;12.48;8.60;;;22.20;99.90;;;;;;4984915;28;20460;-56
2023/06/19 10:45:38;;;;;;;11.25;7.90;;;22.30;99.90;;;;;;4985185;28;20058;-57
2023/06/19 10:48:05;;;;;;;10.43;7.60;;;22.60;99.90;;;;;;4984945;28;20051;-58
2023/06/19 10:50:36;;;;;;;10.88;7.45;;;22.90;99.90;;;;;;4984195;28;20043;-51
2023/06/19 10:53:01;;;;;;;10.82;7.88;;;23.30;99.20;;;;;;4984098;28;20057;-58
2023/06/19 10:55:27;;;;;;;7.72;5.40;;;23.30;99.00;;;;;;4984607;28;20039;-55
2023/06/19 10:57:53;;;;;;;8.63;5.38;;;23.50;98.60;;;;;;4983598;28;20042;-55
2023/06/19 11:00:32;;;;;;;8.88;5.25;;;23.50;97.00;;;;;;4984214;28;20042;-53
2023/06/19 11:02:58;;;;;;;8.45;3.97;;;23.50;96.30;;;;;;4982353;28;20066;-50
2023/06/19 11:05:26;;;;;;;8.30;5.07;;;23.30;96.20;;;;;;4983803;28;20104;-59
2023/06/19 11:07:58;;;;;;;6.30;4.50;;;23.30;95.90;;;;;;4982976;28;20058;-56
2023/06/19 11:10:25;;;;;;;7.15;5.13;;;23.20;96.10;;;;;;4984160;28;20838;-59
2023/06/19 11:12:56;;;;;;;5.40;4.40;;;23.00;96.20;;;;;;4984105;28;20468;-55
2023/06/19 11:15:31;;;;;;;7.15;4.60;;;23.10;96.20;;;;;;4984702;28;20137;-50
2023/06/19 11:17:58;;;;;;;5.68;4.60;;;23.20;96.50;;;;;;4985072;28;20093;-57
2023/06/19 11:20:27;;;;;;;6.13;5.07;;;23.40;96.40;;;;;;4983895;28;20828;-54
2023/06/19 11:23:00;;;;;;;7.00;5.15;;;23.60;96.60;;;;;;4984021;28;20937;-56
2023/06/19 11:25:39;;;;;;;9.00;5.07;;;23.80;96.20;;;;;;4986623;28;20042;-50
2023/06/19 11:28:14;;;;;;;5.78;4.53;;;23.80;95.50;;;;;;4991976;28;20281;-52
2023/06/19 11:30:40;;;;;;;8.88;5.10;;;23.80;95.40;;;;;;5000322;28;20045;-53
2023/06/19 11:33:16;;;;;;;11.05;6.00;;;23.90;95.70;;;;;;4999091;28;20046;-50
2023/06/19 11:35:47;;;;;;;6.45;5.43;;;23.80;95.80;;;;;;4984400;28;20089;-51
2023/06/19 11:38:19;;;;;;;9.75;6.68;;;23.80;95.80;;;;;;4985080;28;20045;-55
2023/06/19 11:40:45;;;;;;;7.40;5.75;;;23.80;95.80;;;;;;4991028;28;20393;-56
2023/06/19 11:43:12;;;;;;;7.55;5.97;;;23.90;95.90;;;;;;4989913;28;20046;-59
2023/06/19 11:45:48;;;;;;;7.75;6.65;;;24.00;95.60;;;;;;4982689;28;20433;-57
2023/06/19 11:48:21;;;;;;;8.50;5.95;;;24.00;95.50;;;;;;4992066;28;20053;-52
2023/06/19 11:50:46;;;;;;;8.23;6.00;;;24.10;95.70;;;;;;4983147;28;20054;-57
2023/06/19 11:53:13;;;;;;;8.63;7.43;;;24.10;95.20;;;;;;4997954;28;20073;-51
2023/06/19 11:55:38;;;;;;;9.25;7.47;;;24.10;95.80;;;;;;4994816;28;20082;-57
2023/06/19 11:58:04;;;;;;;9.63;7.40;;;24.00;95.30;;;;;;4983837;28;20155;-52
2023/06/19 12:00:29;;;;;;;8.48;6.60;;;23.90;95.70;;;;;;4984230;28;20047;-53
2023/06/19 12:02:57;;;;;;;59.00;9.75;;;23.80;95.80;;;;;;4983323;28;20050;-57
2023/06/19 12:05:22;;;;;;;72.25;21.02;;;23.80;95.90;;;;;;4984502;28;20057;-52
2023/06/19 12:07:48;;;;;;;22.05;10.98;;;23.60;96.10;;;;;;4983491;28;20050;-59
2023/06/19 12:10:13;;;;;;;12.60;8.05;;;23.70;96.20;;;;;;4983519;28;20048;-56
2023/06/19 12:12:39;;;;;;;9.15;8.10;;;23.80;96.10;;;;;;4983926;28;20086;-53
2023/06/19 12:15:06;;;;;;;215.30;18.35;;;23.70;96.20;;;;;;4994172;28;20046;-58
2023/06/19 12:17:31;;;;;;;13.60;7.70;;;23.70;96.20;;;;;;5003461;28;20068;-52
2023/06/19 12:19:57;;;;;;;9.07;7.35;;;23.90;95.90;;;;;;4997263;28;20035;-60
2023/06/19 12:22:22;;;;;;;10.32;7.10;;;24.00;95.70;;;;;;4985586;28;20127;-55
2023/06/19 12:24:48;;;;;;;9.23;7.75;;;23.90;95.30;;;;;;5004569;28;20053;-53
2023/06/19 12:27:14;;;;;;;28.30;9.45;;;23.90;95.60;;;;;;4993766;28;20050;-57
2023/06/19 12:29:39;;;;;;;11.43;8.23;;;23.90;95.60;;;;;;4988002;28;20042;-57
2023/06/19 12:32:05;;;;;;;10.02;7.85;;;24.00;95.60;;;;;;4987749;28;20046;-59
2023/06/19 12:34:31;;;;;;;8.32;6.47;;;24.00;95.50;;;;;;5004433;28;20042;-52
2023/06/19 12:36:57;;;;;;;8.45;6.40;;;24.20;95.20;;;;;;5005851;28;20049;-55
2023/06/19 12:39:23;;;;;;;7.90;6.38;;;24.20;94.90;;;;;;5007705;28;20746;-50
2023/06/19 12:41:48;;;;;;;11.88;7.30;;;24.10;95.20;;;;;;5006617;28;20034;-57